Time;durP1;ratioP1;P1;durP2;ratioP2;P2;SDS_P1;SDS_P2;PMS_P1;PMS_P2;Temp;Humidity;BMP_temperature;BMP_pressure;BME280_temperature;BME280_humidity;BME280_pressure;Samples;Min_cycle;Max_cycle;Signal;HPM_P1;HPM_P2
2022/03/22 00:02:16;;;;;;;29.73;18.90;;;;;;;8.69;64.84;103159.88;5100770;27;20204;-81
2022/03/22 00:04:42;;;;;;;30.33;19.00;;;;;;;8.66;65.00;103160.75;5111474;27;20047;-81
2022/03/22 00:07:08;;;;;;;32.72;20.48;;;;;;;8.65;64.83;103162.47;5086956;28;20354;-81
2022/03/22 00:09:34;;;;;;;30.70;19.58;;;;;;;8.63;64.92;103168.56;5131774;27;20357;-81
2022/03/22 00:12:00;;;;;;;33.20;19.73;;;;;;;8.61;65.12;103165.06;5094141;28;20028;-81
2022/03/22 00:14:25;;;;;;;33.30;19.35;;;;;;;8.59;65.09;103164.19;5110895;27;20338;-81
2022/03/22 00:16:53;;;;;;;32.75;19.00;;;;;;;8.57;64.98;103161.56;5103298;27;20035;-81
2022/03/22 00:19:21;;;;;;;30.15;19.20;;;;;;;8.56;65.21;103164.19;5110609;27;20072;-81
2022/03/22 00:21:48;;;;;;;31.23;20.08;;;;;;;8.54;65.13;103161.56;5105937;27;20036;-81
2022/03/22 00:24:13;;;;;;;31.10;18.83;;;;;;;8.50;65.13;103165.03;5120704;27;20327;-81
2022/03/22 00:26:39;;;;;;;29.70;19.50;;;;;;;8.49;65.43;103165.00;5094216;28;20101;-81
2022/03/22 00:29:05;;;;;;;34.75;20.38;;;;;;;8.46;65.37;103158.03;5114583;27;20061;-81
2022/03/22 00:31:31;;;;;;;33.97;20.05;;;;;;;8.44;65.52;103159.75;5082891;28;20052;-81
2022/03/22 00:33:57;;;;;;;31.77;19.35;;;;;;;8.41;65.47;103167.56;5110720;27;20073;-81
2022/03/22 00:36:23;;;;;;;34.88;19.83;;;;;;;8.38;65.76;103168.38;5112718;27;20066;-81
2022/03/22 00:38:48;;;;;;;32.95;19.52;;;;;;;8.37;65.80;103171.03;5119991;28;20048;-81
2022/03/22 00:41:16;;;;;;;30.27;19.38;;;;;;;8.34;65.68;103171.84;5117093;27;20027;-81
2022/03/22 00:43:45;;;;;;;36.65;20.30;;;;;;;8.32;65.96;103170.13;5084771;28;20024;-81
2022/03/22 00:46:11;;;;;;;30.20;19.20;;;;;;;8.29;66.08;103164.88;5083668;27;20270;-81
2022/03/22 00:48:37;;;;;;;31.25;18.83;;;;;;;8.26;65.97;103166.59;5119008;28;20127;-81
2022/03/22 00:51:04;;;;;;;33.63;21.05;;;;;;;8.25;65.96;103171.81;5108303;27;20334;-81
2022/03/22 00:53:29;;;;;;;29.77;19.90;;;;;;;8.23;66.21;103165.69;5119134;28;20042;-81
2022/03/22 00:55:55;;;;;;;30.45;18.92;;;;;;;8.19;66.18;103164.81;5101059;28;20035;-81
2022/03/22 00:58:21;;;;;;;30.90;19.38;;;;;;;8.18;66.19;103176.09;5119087;28;20331;-81
2022/03/22 01:00:47;;;;;;;34.63;20.17;;;;;;;8.14;66.31;103166.50;5131201;27;20088;-81
2022/03/22 01:03:13;;;;;;;30.40;20.40;;;;;;;8.13;66.54;103162.16;5121591;27;20038;-81
2022/03/22 01:05:40;;;;;;;33.20;19.92;;;;;;;8.11;66.62;103161.25;5109352;28;20042;-81
2022/03/22 01:08:12;;;;;;;30.45;18.35;;;;;;;8.10;66.65;103161.28;5101228;28;20042;-81
2022/03/22 01:10:41;;;;;;;32.67;20.85;;;;;;;8.07;66.65;103169.94;5118926;27;20047;-81
2022/03/22 01:13:07;;;;;;;;;;;;;;;8.05;66.86;103161.22;5119917;28;20038;-81
2022/03/22 01:15:34;;;;;;;31.92;19.17;;;;;;;8.04;66.63;103154.25;5100156;28;19958;-81
2022/03/22 01:18:07;;;;;;;38.97;20.77;;;;;;;8.02;66.67;103161.19;5119259;28;20088;-81
2022/03/22 01:20:35;;;;;;;33.97;19.10;;;;;;;8.01;66.84;103157.72;5100585;28;20027;-81
2022/03/22 01:23:04;;;;;;;35.38;19.95;;;;;;;7.99;66.94;103155.97;5118772;28;20031;-81
2022/03/22 01:25:32;;;;;;;34.00;19.88;;;;;;;7.97;67.05;103155.97;5105984;27;20075;-81
2022/03/22 01:27:58;;;;;;;35.25;20.73;;;;;;;7.96;67.14;103159.41;5076206;28;20035;-81
2022/03/22 01:30:25;;;;;;;32.00;19.63;;;;;;;7.95;67.24;103162.91;5121937;27;20336;-81
2022/03/22 01:32:53;;;;;;;38.20;21.45;;;;;;;7.94;67.10;103171.59;5122539;27;20333;-81
2022/03/22 01:35:20;;;;;;;33.53;20.15;;;;;;;7.93;67.32;103167.25;5083956;28;20023;-81
2022/03/22 01:37:47;;;;;;;34.20;19.38;;;;;;;7.91;67.22;103157.66;5118944;28;20031;-81
2022/03/22 01:40:14;;;;;;;31.05;20.23;;;;;;;7.90;67.46;103161.13;5119612;27;20103;-81
2022/03/22 01:42:39;;;;;;;32.08;19.63;;;;;;;7.87;67.37;103152.41;5092011;28;20441;-81
2022/03/22 01:45:07;;;;;;;33.50;19.83;;;;;;;7.87;67.51;103159.34;5118702;27;20246;-81
2022/03/22 01:47:35;;;;;;;35.70;20.65;;;;;;;7.85;67.63;103148.03;5101879;28;20123;-81
2022/03/22 01:50:01;;;;;;;33.97;20.23;;;;;;;7.83;67.60;103161.06;5100701;28;20028;-81
2022/03/22 01:52:26;;;;;;;35.10;21.00;;;;;;;7.81;67.78;103149.75;5099808;28;20084;-81
2022/03/22 01:54:55;;;;;;;36.05;22.17;;;;;;;7.81;68.06;103141.06;5118727;28;20039;-81
2022/03/22 01:57:22;;;;;;;33.97;21.67;;;;;;;7.80;67.90;103150.59;5118106;28;20030;-81
2022/03/22 01:59:48;;;;;;;33.85;21.27;;;;;;;7.79;67.91;103151.47;5118434;28;20035;-81
2022/03/22 02:07:50;;;;;;;35.80;20.85;;;;;;;7.77;68.34;103145.38;5130602;27;20369;-81
2022/03/22 02:10:17;;;;;;;34.95;20.58;;;;;;;7.76;68.35;103143.63;5117726;28;20047;-81
2022/03/22 02:12:44;;;;;;;36.22;21.27;;;;;;;7.75;68.30;103138.38;5117755;27;20110;-81
2022/03/22 02:15:11;;;;;;;36.90;21.77;;;;;;;7.75;68.26;103141.88;5135515;27;20122;-81
2022/03/22 02:17:38;;;;;;;36.72;21.88;;;;;;;7.76;68.19;103145.38;5099667;28;20027;-81
2022/03/22 02:20:04;;;;;;;40.92;21.92;;;;;;;7.75;68.58;103130.56;5118993;27;20319;-81
2022/03/22 02:22:35;;;;;;;38.17;21.80;;;;;;;7.74;68.56;103136.66;5099303;28;20327;-81
2022/03/22 02:25:01;;;;;;;37.97;22.88;;;;;;;7.74;68.55;103134.03;5118224;28;20242;-81
2022/03/22 02:27:29;;;;;;;38.05;23.10;;;;;;;7.73;68.77;103135.78;5112266;27;20106;-82
2022/03/22 02:29:55;;;;;;;38.35;23.08;;;;;;;7.72;68.88;103134.03;5109615;28;21014;-82
2022/03/22 02:32:24;;;;;;;38.85;22.95;;;;;;;7.71;69.01;103129.66;5095409;27;20335;-81
2022/03/22 02:34:50;;;;;;;38.95;22.70;;;;;;;7.71;69.14;103134.88;5138656;27;20078;-81
2022/03/22 02:37:16;;;;;;;37.03;22.55;;;;;;;7.69;69.39;103132.28;5076680;28;20053;-81
2022/03/22 02:39:41;;;;;;;42.33;24.10;;;;;;;7.70;69.59;103133.16;5099704;28;20022;-81
2022/03/22 02:42:07;;;;;;;40.45;22.60;;;;;;;7.68;69.32;103138.34;5099768;28;20339;-81
2022/03/22 02:44:33;;;;;;;37.35;22.95;;;;;;;7.67;69.43;103133.97;5117259;28;20046;-81
2022/03/22 02:46:58;;;;;;;41.83;23.75;;;;;;;7.66;69.46;103126.16;5119802;28;20031;-81
2022/03/22 02:49:24;;;;;;;41.47;23.02;;;;;;;7.66;69.53;103127.03;5081911;28;20026;-81
2022/03/22 02:51:49;;;;;;;39.40;23.35;;;;;;;7.66;69.77;103136.59;5103816;28;20439;-81
2022/03/22 02:54:15;;;;;;;44.05;24.10;;;;;;;7.64;69.88;103135.69;5138123;28;20033;-81
2022/03/22 02:56:40;;;;;;;44.38;24.25;;;;;;;7.64;69.76;103135.69;5134834;28;20230;-81
2022/03/22 02:59:06;;;;;;;42.50;22.73;;;;;;;7.64;69.74;103133.97;5117606;28;20036;-81
2022/03/22 03:01:35;;;;;;;43.60;23.65;;;;;;;7.63;69.90;103134.81;5117643;28;20099;-81
2022/03/22 03:04:01;;;;;;;43.17;24.42;;;;;;;7.63;69.96;103133.97;5120504;28;20062;-81
2022/03/22 03:06:29;;;;;;;40.15;23.17;;;;;;;7.63;69.85;103133.97;5117587;28;20023;-81
2022/03/22 03:08:57;;;;;;;41.90;24.08;;;;;;;7.64;70.34;103139.19;5097141;28;20043;-81
2022/03/22 03:11:23;;;;;;;41.60;24.30;;;;;;;7.63;70.76;103132.22;5095421;28;20039;-81
2022/03/22 03:16:33;;;;;;;43.20;24.02;;;;;;;7.63;70.87;103131.34;5136637;28;20045;-81
2022/03/22 03:18:58;;;;;;;43.45;24.25;;;;;;;7.63;70.86;103126.13;5101936;28;20028;-81
2022/03/22 03:21:24;;;;;;;42.38;24.38;;;;;;;7.64;70.95;103133.06;5102667;28;20062;-81
2022/03/22 03:23:49;;;;;;;40.60;23.02;;;;;;;7.63;70.55;103129.59;5121154;27;20039;-82
2022/03/22 03:26:14;;;;;;;42.40;24.50;;;;;;;7.64;70.41;103131.38;5120080;27;20171;-81
2022/03/22 03:28:40;;;;;;;37.53;23.45;;;;;;;7.64;70.29;103130.47;5125741;27;20038;-81
2022/03/22 03:31:06;;;;;;;44.55;23.60;;;;;;;7.64;70.15;103128.75;5121155;28;20075;-81
2022/03/22 03:33:32;;;;;;;37.75;22.98;;;;;;;7.65;70.22;103133.09;5135160;27;20039;-81
2022/03/22 03:35:58;;;;;;;37.67;22.48;;;;;;;7.64;70.16;103123.53;5142001;27;20223;-81
2022/03/22 03:38:23;;;;;;;41.05;22.17;;;;;;;7.63;70.25;103126.13;5140315;27;20041;-81
2022/03/22 03:43:33;;;;;;;37.53;21.58;;;;;;;7.61;70.42;103136.53;5109900;27;20112;-81
2022/03/22 03:48:42;;;;;;;37.53;22.20;;;;;;;7.59;70.51;103130.44;5134559;27;20081;-81
2022/03/22 03:51:07;;;;;;;38.47;22.77;;;;;;;7.58;70.68;103127.81;5141543;27;20035;-81
2022/03/22 03:53:33;;;;;;;39.75;23.15;;;;;;;7.58;70.79;103130.44;5110860;28;20077;-81
2022/03/22 03:55:58;;;;;;;41.90;24.33;;;;;;;7.56;70.93;103130.41;5086013;28;20038;-81
2022/03/22 03:58:24;;;;;;;40.05;25.02;;;;;;;7.57;70.87;103141.75;5108682;28;20035;-81
2022/03/22 04:00:49;;;;;;;41.03;24.05;;;;;;;7.58;70.87;103133.91;5125300;27;20053;-79
2022/03/22 04:03:15;;;;;;;36.22;22.98;;;;;;;7.56;70.89;103138.22;5118903;27;20047;-79
2022/03/22 04:05:40;;;;;;;37.47;22.55;;;;;;;7.57;70.86;103145.22;5140817;27;20275;-79
2022/03/22 04:08:06;;;;;;;39.67;23.13;;;;;;;7.57;70.93;103146.94;5132688;27;20043;-79
2022/03/22 04:10:34;;;;;;;40.15;24.25;;;;;;;7.58;71.04;103146.06;5140771;27;20039;-79
2022/03/22 04:13:00;;;;;;;41.58;24.08;;;;;;;7.58;70.85;103148.69;5118285;28;20563;-79
2022/03/22 04:15:25;;;;;;;42.33;23.52;;;;;;;7.57;70.94;103149.56;5120042;28;20299;-79
2022/03/22 04:17:52;;;;;;;41.67;23.80;;;;;;;7.57;70.88;103150.44;5110475;27;20043;-79
2022/03/22 04:20:21;;;;;;;41.88;24.00;;;;;;;7.58;70.76;103146.06;5101664;27;20036;-79
2022/03/22 04:22:47;;;;;;;41.00;23.63;;;;;;;7.58;70.92;103143.47;5120723;27;20227;-79
2022/03/22 04:25:13;;;;;;;38.63;23.02;;;;;;;7.58;71.00;103143.47;5121256;27;20043;-79
2022/03/22 04:33:06;;;;;;;43.88;24.42;;;;;;;7.58;71.17;103148.69;5086781;27;20058;-79
2022/03/22 04:35:32;;;;;;;39.40;22.52;;;;;;;7.59;71.11;103147.84;5120061;28;20045;-79
2022/03/22 04:37:58;;;;;;;42.90;24.40;;;;;;;7.58;71.05;103146.06;5132255;27;20039;-79
2022/03/22 04:40:25;;;;;;;43.05;23.48;;;;;;;7.58;71.26;103144.34;5120164;27;20031;-79
2022/03/22 04:42:51;;;;;;;35.70;21.50;;;;;;;7.58;71.32;103144.34;5120311;28;20087;-79
2022/03/22 04:45:16;;;;;;;38.10;22.67;;;;;;;7.59;71.39;103143.50;5103892;27;20291;-79
2022/03/22 04:47:45;;;;;;;42.17;23.58;;;;;;;7.59;71.56;103142.63;5124536;27;20243;-79
2022/03/22 04:50:12;;;;;;;43.15;23.60;;;;;;;7.59;71.80;103145.22;5137387;27;20053;-79
2022/03/22 04:58:06;;;;;;;42.33;23.08;;;;;;;7.58;71.47;103159.97;5120238;27;20108;-79
2022/03/22 05:00:34;;;;;;;41.47;23.65;;;;;;;7.58;71.62;103153.91;5119429;28;20044;-79
2022/03/22 05:03:00;;;;;;;40.75;24.30;;;;;;;7.57;71.73;103160.84;5119949;28;20114;-79
2022/03/22 05:08:10;;;;;;;39.40;22.92;;;;;;;7.57;71.69;103163.47;5120067;27;20085;-79
2022/03/22 05:10:35;;;;;;;39.75;24.38;;;;;;;7.58;71.58;103161.72;5136777;27;20043;-79
2022/03/22 05:13:02;;;;;;;37.90;23.17;;;;;;;7.57;71.79;103160.84;5140430;27;20038;-79
2022/03/22 05:15:27;;;;;;;41.53;24.00;;;;;;;7.56;71.85;103159.09;5112672;27;20043;-79
2022/03/22 05:17:56;;;;;;;38.42;23.88;;;;;;;7.57;71.90;103162.59;5104947;27;20092;-79
2022/03/22 05:20:21;;;;;;;45.70;23.73;;;;;;;7.58;71.84;103164.31;5125315;27;20074;-79
2022/03/22 05:22:48;;;;;;;39.13;23.55;;;;;;;7.57;71.94;103163.47;5101505;28;20278;-79
2022/03/22 05:25:13;;;;;;;45.97;23.48;;;;;;;7.57;71.87;103167.81;5103063;27;20336;-79
2022/03/22 05:27:39;;;;;;;40.55;24.25;;;;;;;7.58;71.83;103169.53;5120042;27;20035;-79
2022/03/22 05:30:06;;;;;;;42.42;24.77;;;;;;;7.58;72.10;103169.53;5112041;27;20047;-79
2022/03/22 05:32:31;;;;;;;39.28;23.83;;;;;;;7.56;71.76;103172.13;5126898;27;20058;-79
2022/03/22 05:34:57;;;;;;;39.83;23.15;;;;;;;7.56;71.79;103173.88;5111586;28;20066;-79
2022/03/22 05:37:22;;;;;;;42.45;23.85;;;;;;;7.56;71.78;103171.28;5103839;27;20038;-79
2022/03/22 05:39:48;;;;;;;38.42;23.45;;;;;;;7.55;71.76;103180.84;5111611;28;20020;-80
2022/03/22 05:42:16;;;;;;;41.03;24.00;;;;;;;7.55;71.77;103178.22;5117145;28;20131;-79
2022/03/22 05:44:43;;;;;;;40.23;23.80;;;;;;;7.53;71.73;103182.56;5102763;27;20045;-79
2022/03/22 05:47:09;;;;;;;41.67;24.38;;;;;;;7.54;71.80;103183.44;5138331;27;20264;-79
2022/03/22 05:49:36;;;;;;;42.05;24.17;;;;;;;7.53;71.91;103181.66;5105324;28;20039;-79
2022/03/22 05:52:03;;;;;;;41.22;23.35;;;;;;;7.51;71.83;103179.03;5117206;28;20027;-79
2022/03/22 05:54:29;;;;;;;39.03;23.55;;;;;;;7.50;72.09;103178.16;5099428;27;20657;-79
2022/03/22 05:56:54;;;;;;;40.65;24.35;;;;;;;7.50;71.98;103179.91;5116927;28;20128;-79
2022/03/22 05:59:20;;;;;;;40.55;23.92;;;;;;;7.50;72.07;103187.75;5108514;27;20098;-79
2022/03/22 06:01:46;;;;;;;37.28;22.48;;;;;;;7.48;71.89;103181.63;5117320;27;20043;-79
2022/03/22 06:04:11;;;;;;;42.97;22.80;;;;;;;7.47;71.97;103180.75;5099845;28;20422;-79
2022/03/22 06:06:37;;;;;;;39.15;23.83;;;;;;;7.48;71.83;103186.84;5117596;27;20227;-79
2022/03/22 06:09:03;;;;;;;35.47;23.05;;;;;;;7.47;71.96;103185.09;5109029;28;20380;-79
2022/03/22 06:11:35;;;;;;;41.13;21.73;;;;;;;7.46;72.00;103186.81;5117669;27;20035;-79
2022/03/22 06:14:02;;;;;;;42.88;22.75;;;;;;;7.47;71.98;103185.09;5098878;28;20032;-79
2022/03/22 06:16:28;;;;;;;34.90;22.80;;;;;;;7.46;72.06;103186.81;5115347;27;20092;-79
2022/03/22 06:18:54;;;;;;;43.67;23.80;;;;;;;7.46;72.02;103186.81;5117257;27;20051;-79
2022/03/22 06:21:19;;;;;;;42.78;25.65;;;;;;;7.45;72.13;103195.50;5102516;28;20421;-79
2022/03/22 06:23:47;;;;;;;42.58;23.13;;;;;;;7.46;72.52;103191.19;5117659;28;20031;-79
2022/03/22 06:26:13;;;;;;;40.30;23.38;;;;;;;7.43;72.57;103197.22;5109547;28;20047;-79
2022/03/22 06:28:38;;;;;;;38.17;23.63;;;;;;;7.44;72.38;103198.09;5098998;28;20083;-79
2022/03/22 06:31:03;;;;;;;42.90;23.85;;;;;;;7.44;72.51;103201.59;5098535;28;20051;-79
2022/03/22 06:33:29;;;;;;;38.95;23.08;;;;;;;7.44;72.53;103198.97;5080683;28;20322;-79
2022/03/22 06:35:55;;;;;;;39.63;22.90;;;;;;;7.43;72.76;103202.44;5101984;28;20092;-79
2022/03/22 06:38:20;;;;;;;40.45;23.08;;;;;;;7.44;72.84;103211.13;5098611;27;20063;-79
2022/03/22 06:40:48;;;;;;;44.88;22.98;;;;;;;7.43;72.96;103207.66;5071860;27;20042;-79
2022/03/22 06:43:15;;;;;;;38.97;23.27;;;;;;;7.44;73.31;103208.50;5101467;27;20047;-79
2022/03/22 06:45:41;;;;;;;41.25;24.65;;;;;;;7.43;73.33;103212.88;5106022;28;20171;-79
2022/03/22 06:48:07;;;;;;;37.33;23.40;;;;;;;7.44;73.62;103209.41;5078317;28;20024;-79
2022/03/22 06:50:34;;;;;;;39.67;23.17;;;;;;;7.45;73.51;103215.50;5104192;28;20057;-79
2022/03/22 06:52:59;;;;;;;38.45;22.90;;;;;;;7.47;73.74;103219.84;5117780;28;20080;-79
2022/03/22 06:55:25;;;;;;;39.63;22.40;;;;;;;7.48;73.64;103216.41;5133444;28;20038;-79
2022/03/22 06:57:51;;;;;;;37.55;22.50;;;;;;;7.49;73.57;103212.94;5097956;28;20039;-79
2022/03/22 07:00:19;;;;;;;37.25;21.52;;;;;;;7.53;73.63;103220.78;5132380;28;20030;-79
2022/03/22 07:02:46;;;;;;;36.83;21.70;;;;;;;7.53;73.54;103219.06;5116392;28;20058;-79
2022/03/22 07:05:15;;;;;;;39.25;21.02;;;;;;;7.55;73.60;103211.22;5098795;28;20042;-79
2022/03/22 07:07:42;;;;;;;36.90;21.92;;;;;;;7.57;73.46;103215.63;5098450;28;20027;-79
2022/03/22 07:10:12;;;;;;;38.00;21.55;;;;;;;7.60;73.58;103214.75;5115995;28;20561;-79
2022/03/22 07:12:55;;;;;;;29.55;19.85;;;;;;;7.61;73.53;103214.78;5136762;28;20035;-79
2022/03/22 07:15:32;;;;;;;36.15;20.77;;;;;;;7.64;73.42;103221.75;5131286;28;20027;-79
2022/03/22 07:18:00;;;;;;;36.08;20.80;;;;;;;7.66;73.71;103217.44;5116335;28;20063;-79
2022/03/22 07:20:25;;;;;;;34.95;21.77;;;;;;;7.67;73.73;103221.78;5096992;28;20024;-79
2022/03/22 07:22:51;;;;;;;31.05;19.85;;;;;;;7.69;73.84;103220.97;5097424;28;20085;-79
2022/03/22 07:25:17;;;;;;;35.50;21.77;;;;;;;7.71;73.81;103225.31;5116710;28;20111;-79
2022/03/22 07:27:43;;;;;;;40.80;22.10;;;;;;;7.73;73.83;103224.47;5116443;28;20035;-79
2022/03/22 07:30:12;;;;;;;34.35;21.08;;;;;;;7.76;74.15;103228.84;5135690;28;20430;-79
2022/03/22 07:32:38;;;;;;;33.75;20.95;;;;;;;7.77;74.14;103228.84;5109663;28;20393;-79
2022/03/22 07:35:06;;;;;;;42.53;23.08;;;;;;;7.78;74.07;103233.19;5096082;28;20334;-79
2022/03/22 07:37:32;;;;;;;34.45;21.70;;;;;;;7.80;74.29;103231.47;5082604;28;20231;-79
2022/03/22 07:39:58;;;;;;;37.42;22.48;;;;;;;7.83;74.63;103228.03;5096445;28;20038;-79
2022/03/22 07:42:27;;;;;;;36.10;21.90;;;;;;;7.85;74.89;103228.91;5108696;28;20043;-79
2022/03/22 07:44:55;;;;;;;31.05;21.30;;;;;;;7.87;75.30;103225.44;5112078;28;20465;-79
2022/03/22 07:47:21;;;;;;;36.38;23.73;;;;;;;7.91;75.33;103233.31;5125492;28;20055;-79
2022/03/22 07:55:14;;;;;;;47.08;25.63;;;;;;;8.03;76.61;103236.03;5105373;28;20263;-79
2022/03/22 07:57:42;;;;;;;34.17;20.90;;;;;;;8.09;76.63;103241.28;5096111;28;20039;-80
2022/03/22 08:00:08;;;;;;;35.85;22.00;;;;;;;8.13;76.90;103239.56;5079251;28;20031;-79
2022/03/22 08:02:36;;;;;;;35.05;21.65;;;;;;;8.16;76.87;103243.09;5114246;28;20040;-79
2022/03/22 08:05:04;;;;;;;40.83;23.60;;;;;;;8.22;77.46;103242.25;5096048;28;20031;-79
2022/03/22 08:07:30;;;;;;;34.35;21.48;;;;;;;8.26;77.65;103247.53;5117206;27;20088;-79
2022/03/22 08:09:56;;;;;;;45.90;25.45;;;;;;;8.31;78.04;103246.69;5064238;28;20132;-79
2022/03/22 08:12:22;;;;;;;39.63;24.92;;;;;;;8.39;78.21;103250.22;5101069;28;20602;-79
2022/03/22 08:14:47;;;;;;;39.67;23.00;;;;;;;8.46;78.09;103244.22;5082066;28;20036;-79
2022/03/22 08:17:13;;;;;;;48.03;26.80;;;;;;;8.53;78.55;103245.13;5119784;27;20065;-79
2022/03/22 08:19:39;;;;;;;34.83;22.70;;;;;;;8.61;77.65;103251.28;5082904;28;20038;-79
2022/03/22 08:22:05;;;;;;;45.00;23.35;;;;;;;8.65;77.65;103251.28;5083990;28;20040;-79
2022/03/22 08:24:31;;;;;;;37.95;23.33;;;;;;;8.72;77.73;103252.22;5095609;28;20031;-79
2022/03/22 08:26:56;;;;;;;37.03;23.27;;;;;;;8.77;77.33;103260.09;5118529;27;20235;-79
2022/03/22 08:29:22;;;;;;;44.65;23.95;;;;;;;8.80;77.45;103258.38;5083554;28;20046;-80
2022/03/22 08:31:47;;;;;;;33.40;21.23;;;;;;;8.87;77.37;103256.63;5113955;27;20054;-79
2022/03/22 08:34:13;;;;;;;42.92;22.83;;;;;;;8.92;77.38;103261.91;5109532;28;20125;-79
2022/03/22 08:36:39;;;;;;;52.45;24.90;;;;;;;8.97;77.53;103254.97;5120545;27;20043;-79
2022/03/22 08:39:04;;;;;;;38.45;22.00;;;;;;;9.02;77.20;103256.72;5111392;27;20036;-80
2022/03/22 08:41:31;;;;;;;40.33;22.05;;;;;;;9.09;77.15;103254.13;5120100;27;20039;-80
2022/03/22 08:43:56;;;;;;;39.13;22.23;;;;;;;9.14;77.14;103261.13;5114642;27;20399;-80
2022/03/22 08:46:24;;;;;;;41.58;22.15;;;;;;;9.20;77.01;103255.94;5114895;27;20039;-80
2022/03/22 08:48:51;;;;;;;43.15;23.77;;;;;;;9.29;76.63;103259.44;5125839;27;20043;-79
2022/03/22 08:51:18;;;;;;;38.38;22.60;;;;;;;9.34;76.36;103261.19;5128620;27;20041;-80
2022/03/22 08:53:44;;;;;;;40.15;22.20;;;;;;;9.41;76.04;103267.31;5100282;27;20042;-79
2022/03/22 08:56:11;;;;;;;36.88;21.85;;;;;;;9.46;76.29;103265.59;5110252;27;20106;-80
2022/03/22 08:58:37;;;;;;;40.80;22.17;;;;;;;9.55;76.00;103269.94;5103980;27;20338;-79
2022/03/22 09:01:03;;;;;;;33.08;21.27;;;;;;;9.63;75.72;103273.47;5109833;27;20031;-80
2022/03/22 09:03:31;;;;;;;36.83;21.90;;;;;;;9.68;75.34;103273.47;5098598;27;20026;-79
2022/03/22 09:06:09;;;;;;;34.75;21.15;;;;;;;9.74;75.17;103266.50;5116096;27;20035;-79
2022/03/22 09:08:36;;;;;;;35.22;23.00;;;;;;;9.81;75.40;103267.41;5096160;27;20019;-79
2022/03/22 09:11:02;;;;;;;40.33;22.02;;;;;;;9.90;75.16;103275.25;5077585;28;20035;-79
2022/03/22 09:13:28;;;;;;;39.70;22.17;;;;;;;9.98;74.96;103264.78;5099475;28;20047;-79
2022/03/22 09:15:54;;;;;;;35.55;20.73;;;;;;;10.05;74.62;103263.94;5103944;28;20043;-80
2022/03/22 09:18:23;;;;;;;42.67;22.25;;;;;;;10.10;74.05;103264.81;5111791;27;20058;-79
2022/03/22 09:20:49;;;;;;;39.83;21.77;;;;;;;10.18;74.17;103273.53;5090929;28;20115;-79
2022/03/22 09:23:15;;;;;;;38.45;21.55;;;;;;;10.23;74.01;103268.28;5105201;27;20038;-80
2022/03/22 09:25:42;;;;;;;35.22;22.38;;;;;;;10.30;73.81;103263.94;5124409;27;20258;-79
2022/03/22 09:28:08;;;;;;;38.83;20.73;;;;;;;10.36;73.06;103270.06;5118823;27;20043;-80
2022/03/22 09:30:35;;;;;;;38.20;20.52;;;;;;;10.43;72.89;103276.16;5109946;27;20039;-80
2022/03/22 09:33:02;;;;;;;32.50;19.65;;;;;;;10.50;72.85;103264.81;5100620;28;20080;-80
2022/03/22 09:35:28;;;;;;;31.85;19.90;;;;;;;10.57;72.59;103266.53;5083436;27;20127;-80
2022/03/22 09:37:53;;;;;;;33.15;20.48;;;;;;;10.67;73.09;103262.13;5117948;27;20204;-80
2022/03/22 09:40:19;;;;;;;33.83;20.67;;;;;;;10.75;71.73;103267.34;5117609;28;20076;-80
2022/03/22 09:42:46;;;;;;;32.25;20.58;;;;;;;10.84;71.10;103264.75;5116133;28;20318;-79
2022/03/22 09:45:14;;;;;;;37.20;21.20;;;;;;;10.93;71.81;103272.56;5100738;27;20270;-80
2022/03/22 09:47:42;;;;;;;32.93;20.83;;;;;;;11.01;70.84;103269.91;5093261;27;20094;-80
2022/03/22 09:50:09;;;;;;;34.33;20.38;;;;;;;11.09;71.04;103265.50;5116778;27;20137;-80
2022/03/22 09:52:35;;;;;;;28.80;18.95;;;;;;;11.14;70.86;103262.88;5118007;27;20354;-80
2022/03/22 09:55:01;;;;;;;27.48;18.45;;;;;;;11.23;70.24;103262.81;5122848;27;20111;-80
2022/03/22 09:57:27;;;;;;;36.40;19.27;;;;;;;11.31;68.91;103255.81;5122855;27;20043;-80
2022/03/22 09:59:53;;;;;;;35.03;18.80;;;;;;;11.41;69.04;103254.00;5079071;28;20141;-80
2022/03/22 10:02:27;;;;;;;30.73;19.63;;;;;;;11.48;68.33;103255.69;5090300;27;20214;-79
2022/03/22 10:04:52;;;;;;;27.02;18.33;;;;;;;11.54;68.52;103252.16;5090997;28;20055;-80
2022/03/22 10:07:20;;;;;;;27.05;18.88;;;;;;;11.60;68.44;103256.50;5108496;27;20346;-80
2022/03/22 10:09:54;;;;;;;27.27;17.27;;;;;;;11.68;68.07;103258.19;5102543;27;20394;-80
2022/03/22 10:12:36;;;;;;;26.15;17.77;;;;;;;11.81;68.03;103248.47;5104415;28;20100;-80
2022/03/22 10:15:17;;;;;;;27.50;18.35;;;;;;;11.93;67.44;103251.91;5102383;28;20026;-80
2022/03/22 10:17:43;;;;;;;31.33;17.83;;;;;;;12.00;66.42;103248.38;5094777;28;20386;-80
2022/03/22 10:20:20;;;;;;;26.50;16.25;;;;;;;12.06;66.11;103254.44;5111461;27;20099;-80
2022/03/22 10:22:58;;;;;;;38.33;17.77;;;;;;;12.14;65.65;103251.75;5108684;27;20223;-80
2022/03/22 10:25:24;;;;;;;31.83;16.23;;;;;;;12.22;66.81;103252.53;5112331;27;20222;-79
2022/03/22 10:27:54;;;;;;;27.98;16.42;;;;;;;12.32;65.00;103255.09;5104556;28;20036;-80
2022/03/22 10:30:20;;;;;;;25.77;15.77;;;;;;;12.40;65.57;103256.75;5079959;28;20281;-80
2022/03/22 10:32:51;;;;;;;30.50;15.93;;;;;;;12.46;65.69;103248.81;5122338;27;20042;-80
2022/03/22 10:35:33;;;;;;;58.65;15.93;;;;;;;12.59;64.23;103246.06;5084629;28;20345;-80
2022/03/22 10:38:01;;;;;;;29.08;15.52;;;;;;;12.65;64.19;103248.63;5111330;27;20062;-80
2022/03/22 10:40:30;;;;;;;27.80;15.95;;;;;;;12.69;63.98;103245.06;5110214;27;20282;-80
2022/03/22 10:43:06;;;;;;;34.05;16.35;;;;;;;12.76;63.61;103248.50;5116759;27;20050;-80
2022/03/22 10:45:52;;;;;;;22.67;15.48;;;;;;;12.84;64.45;103252.78;5107860;28;20304;-80
2022/03/22 10:48:28;;;;;;;26.23;15.13;;;;;;;12.93;62.56;103246.53;5094316;28;20077;-80
2022/03/22 10:50:57;;;;;;;26.50;14.80;;;;;;;13.00;62.16;103247.31;5092809;28;20306;-80
2022/03/22 10:53:24;;;;;;;26.80;14.75;;;;;;;13.01;63.35;103252.56;5111357;28;20036;-80
2022/03/22 10:55:50;;;;;;;19.63;14.15;;;;;;;13.07;63.61;103247.22;5071589;28;20043;-80
2022/03/22 10:58:20;;;;;;;29.23;16.73;;;;;;;13.13;61.99;103246.28;5110410;28;20058;-80
2022/03/22 11:00:46;;;;;;;61.92;16.80;;;;;;;13.18;62.66;103246.22;5089197;28;20303;-80
2022/03/22 11:03:14;;;;;;;27.80;14.93;;;;;;;13.23;63.38;103247.91;5108895;28;20036;-80
2022/03/22 11:05:49;;;;;;;33.42;14.98;;;;;;;13.30;62.97;103239.91;5111199;28;20031;-80
2022/03/22 11:08:18;;;;;;;24.25;15.30;;;;;;;13.41;61.66;103245.94;5120253;28;20267;-80
2022/03/22 11:10:48;;;;;;;26.13;15.65;;;;;;;13.48;61.90;103244.97;5090406;28;20329;-80
2022/03/22 11:13:15;;;;;;;31.08;15.05;;;;;;;13.55;60.59;103244.00;5065774;28;20115;-80
2022/03/22 11:15:55;;;;;;;30.33;15.07;;;;;;;13.62;58.71;103245.66;5092600;28;20115;-79
2022/03/22 11:18:23;;;;;;;24.48;13.25;;;;;;;13.67;57.86;103247.31;5082033;28;20335;-80
2022/03/22 11:20:52;;;;;;;21.58;13.43;;;;;;;13.69;58.25;103235.88;5102125;28;20028;-80
2022/03/22 11:23:32;;;;;;;23.60;13.63;;;;;;;13.76;58.81;103234.88;5093909;28;20185;-80
2022/03/22 11:26:11;;;;;;;20.67;14.75;;;;;;;13.83;59.49;103241.78;5100266;28;20099;-80
2022/03/22 11:28:39;;;;;;;24.10;13.25;;;;;;;13.91;59.99;103239.00;5124577;28;20118;-79
2022/03/22 11:31:06;;;;;;;21.35;13.40;;;;;;;14.03;59.32;103240.59;5110326;28;20047;-80
2022/03/22 11:36:19;;;;;;;22.63;13.90;;;;;;;14.24;58.70;103241.97;5084164;28;20043;-84
2022/03/22 11:38:48;;;;;;;25.33;13.23;;;;;;;14.30;57.25;103235.75;5090275;28;20338;-80
2022/03/22 11:44:23;;;;;;;22.05;14.35;;;;;;;14.32;57.26;103228.69;5107033;27;20049;-80
2022/03/22 11:47:06;;;;;;;21.20;14.43;;;;;;;14.36;57.04;103231.22;5108118;27;20323;-80
2022/03/22 11:49:53;;;;;;;23.40;14.65;;;;;;;14.45;55.65;103227.53;5107351;27;20335;-80
2022/03/22 11:52:21;;;;;;;20.05;14.30;;;;;;;14.52;55.83;103226.53;5105942;27;20035;-80
2022/03/22 11:54:59;;;;;;;20.55;14.55;;;;;;;14.57;56.19;103234.31;5111711;28;20046;-80
2022/03/22 11:57:25;;;;;;;23.38;15.07;;;;;;;14.59;56.74;103219.41;5095131;27;20038;-80